Weather at Tambao Airport

Public forecast

Using degrees Celsius for public forecast. Weather courtesy of forecast.io.

Closest aviation weather report (METAR) to Tambao Airport

Report is more than 6 hours old.

Closest report is Gao Airport, 87.5 nm (162.1 km) N.

2024/07/22 16:00 (retrieved 7 hours ago)

GAGO 221600Z 13003KT 9999 BKN030 35/21 Q1011 NOSIG

Closest aviation forecast (TAF) to Tambao Airport

Closest forecast is Gao Airport, 87.5 nm (162.1 km) N.

2024/07/22 18:51 (retrieved 4 hours ago)

TAF TAF GAGO 221730Z 2218/2318 26010KT 8000 FEW030 TEMPO 2218/2224 VRB20G40KT 2000 TSRA BLDU SCT030 FEW040CB PROB40 TEMPO 2300/2306 4000 SHRA SCT030 FEW040CB